WetterOnline ( https://www.wetteronline.de )

Wetter aktuell Teltow

Aktuelles Wetter: Berlin-Dahlem (70m)

6-stündlich | Neueste Meldungen
Ortszeit Temperatur Wetter
Fr, 06.12. 13:00 2.5° C leichter Regen
Fr, 06.12. 7:00 0.2° C leicht bewölkt
Fr, 06.12. 1:00 -0.6° C leicht bewölkt
Do, 05.12. 19:00 1.2° C leicht bewölkt
Do, 05.12. 13:00 3.5° C fast wolkenlos
Do, 05.12. 7:00 -1.7° C wolkenlos
Do, 05.12. 1:00 -0.2° C wolkenlos
Mi, 04.12. 19:00 1.3° C fast wolkenlos
Ortszeit Temperatur Wetter
Fr, 06.12. 18:00 2.8° C leichter Regen
Fr, 06.12. 17:00 2.6° C leichter Regen
Fr, 06.12. 16:00 2.7° C leichter Regen
Fr, 06.12. 15:00 2.5° C leichter Regen
Fr, 06.12. 14:00 2.3° C leichter Regen
Fr, 06.12. 13:00 2.5° C leichter Regen
Ortszeit Relative Feuchte Sichtweite
Fr, 06.12. 13:00 84% 10 km
Fr, 06.12. 7:00 81% 15 km
Fr, 06.12. 1:00 92% 20 km
Do, 05.12. 19:00 85% 20 km
Do, 05.12. 13:00 73% 20 km
Do, 05.12. 7:00 99% 10 km
Do, 05.12. 1:00 99% 20 km
Mi, 04.12. 19:00 97% 18 km
Ortszeit Relative Feuchte Sichtweite
Fr, 06.12. 18:00 94% 10 km
Fr, 06.12. 17:00 94% 8 km
Fr, 06.12. 16:00 93% 8 km
Fr, 06.12. 15:00 94% 8 km
Fr, 06.12. 14:00 93% 8 km
Fr, 06.12. 13:00 84% 10 km
Ortszeit Niederschlagsmenge Niederschlagsart
Fr, 06.12. 13:00 0.1 l/m2 in 6 Std. Regen
Fr, 06.12. 7:00 0.0 l/m2 in 12 Std. -
Fr, 06.12. 1:00 0.0 l/m2 in 6 Std. -
Do, 05.12. 19:00 0.0 l/m2 in 12 Std. -
Do, 05.12. 13:00 0.0 l/m2 in 6 Std. -
Do, 05.12. 7:00 0.0 l/m2 in 12 Std. -
Do, 05.12. 1:00 0.0 l/m2 in 6 Std. -
Mi, 04.12. 19:00 0.0 l/m2 in 12 Std. -
Ortszeit Niederschlagsmenge Niederschlagsart
Fr, 06.12. 18:00 keine Meldung -
Fr, 06.12. 17:00 keine Meldung -
Fr, 06.12. 16:00 keine Meldung -
Fr, 06.12. 15:00 keine Meldung -
Fr, 06.12. 14:00 keine Meldung -
Fr, 06.12. 13:00 keine Meldung -
Ortszeit Stärke Spitze Richtung
km/h Bft. km/h Grad Sektor
Fr, 06.12. 13:00 18 3 - 220° SW
Fr, 06.12. 7:00 18 3 - 220° SW
Fr, 06.12. 1:00 18 3 - 210° SW
Do, 05.12. 19:00 14 3 - 210° SW
Do, 05.12. 13:00 11 2 - 220° SW
Do, 05.12. 7:00 11 2 - 210° SW
Do, 05.12. 1:00 14 3 - 190° S
Mi, 04.12. 19:00 11 2 - 210° SW
Ortszeit Stärke Spitze Richtung
km/h Bft. km/h Grad Sektor
Fr, 06.12. 18:00 25 4 47 220° SW
Fr, 06.12. 17:00 22 4 47 220° SW
Fr, 06.12. 16:00 25 4 - 220° SW
Fr, 06.12. 15:00 22 4 - 220° SW
Fr, 06.12. 14:00 18 3 - 220° SW
Fr, 06.12. 13:00 18 3 - 220° SW
Ortszeit Untergrenze Bedeckung Gattung
total tief tief mittel hoch
Fr, 06.12. 13:00 570 m 8/8 7/8 Sc - -
Fr, 06.12. 7:00 6000 m 4/8 3/8 - Ac Ci
Fr, 06.12. 1:00 9000 m 3/8 0/8 - - Ci
Do, 05.12. 19:00 9000 m 2/8 0/8 - - Ci
Do, 05.12. 13:00 9000 m 1/8 0/8 - - Ci
Do, 05.12. 7:00 - 0/8 0/8 - - -
Do, 05.12. 1:00 - 0/8 0/8 - - -
Mi, 04.12. 19:00 12000 m 1/8 0/8 - - Ci
Ortszeit Bedeckungsgrad in Achtel und Wolkenuntergrenze
Fr, 06.12. 18:00 2(840m) 4(1200m) 8(2100m)
Fr, 06.12. 17:00 5(1050m) 8(2100m)
Fr, 06.12. 16:00 4(1290m) 8(2100m)
Fr, 06.12. 15:00 4(1290m) 8(2100m)
Fr, 06.12. 14:00 4(1500m) 7(2100m)
Fr, 06.12. 13:00 7(570m)
Ortszeit Luftdruck NN (hPa) Tendenz (hPa in 3 Std.)
Fr, 06.12. 13:00 1011 - 1,3
Fr, 06.12. 7:00 1012 - 1,4
Fr, 06.12. 1:00 1016 - 1,5
Do, 05.12. 19:00 1018 - 0,9
Do, 05.12. 13:00 1020 - 0,9
Do, 05.12. 7:00 1021 - 0,3
Do, 05.12. 1:00 1022 - 1,2
Mi, 04.12. 19:00 1023 0,0
Ortszeit Luftdruck NN (hPa) Tendenz (hPa in 3 Std.)
Fr, 06.12. 18:00 1008 - 1,5
Fr, 06.12. 17:00 1008 - 1,5
Fr, 06.12. 16:00 1009 - 2,0
Fr, 06.12. 15:00 1009 - 2,1
Fr, 06.12. 14:00 1010 - 2,0
Fr, 06.12. 13:00 1011 - 1,3
Ortszeit Schneehöhe (cm)
Fr, 06.12. 13:00 0
Fr, 06.12. 7:00 0
Fr, 06.12. 1:00 0
Do, 05.12. 19:00 0
Do, 05.12. 13:00 0
Do, 05.12. 7:00 0
Do, 05.12. 1:00 0
Mi, 04.12. 19:00 0
Ortszeit Schneehöhe (cm)
Fr, 06.12. 18:00 -
Fr, 06.12. 17:00 -
Fr, 06.12. 16:00 -
Fr, 06.12. 15:00 -
Fr, 06.12. 14:00 -
Fr, 06.12. 13:00 0
Link zu dieser Seite / Seite empfehlen

Das Wetter in ...